sensor_id;sensor_type;location;lat;lon;timestamp;temperature;humidity
5394;DHT22;2720;52.396;10.064;2022-12-18T00:02:06;-6.30;99.90
5394;DHT22;2720;52.396;10.064;2022-12-18T00:04:33;-5.80;99.90
5394;DHT22;2720;52.396;10.064;2022-12-18T00:07:01;-6.30;99.90
5394;DHT22;2720;52.396;10.064;2022-12-18T00:09:28;-6.30;99.90
5394;DHT22;2720;52.396;10.064;2022-12-18T00:11:55;-5.90;99.90
5394;DHT22;2720;52.396;10.064;2022-12-18T00:14:22;-6.50;99.90
5394;DHT22;2720;52.396;10.064;2022-12-18T00:16:49;-6.30;99.90
5394;DHT22;2720;52.396;10.064;2022-12-18T00:19:16;-6.40;99.90
5394;DHT22;2720;52.396;10.064;2022-12-18T00:21:43;-6.30;99.90
5394;DHT22;2720;52.396;10.064;2022-12-18T00:24:12;-6.30;99.90
5394;DHT22;2720;52.396;10.064;2022-12-18T00:26:39;-6.20;99.90
5394;DHT22;2720;52.396;10.064;2022-12-18T00:29:09;-6.40;99.90
5394;DHT22;2720;52.396;10.064;2022-12-18T00:31:37;-6.50;99.90
5394;DHT22;2720;52.396;10.064;2022-12-18T00:34:04;-6.20;99.90
5394;DHT22;2720;52.396;10.064;2022-12-18T00:36:33;-6.50;99.90
5394;DHT22;2720;52.396;10.064;2022-12-18T00:39:02;-6.40;99.90
5394;DHT22;2720;52.396;10.064;2022-12-18T00:41:30;-6.60;99.90
5394;DHT22;2720;52.396;10.064;2022-12-18T00:44:17;-6.60;99.90
5394;DHT22;2720;52.396;10.064;2022-12-18T00:46:45;-6.00;99.90
5394;DHT22;2720;52.396;10.064;2022-12-18T00:49:16;-6.70;99.90
5394;DHT22;2720;52.396;10.064;2022-12-18T00:51:43;-7.10;99.90
5394;DHT22;2720;52.396;10.064;2022-12-18T00:54:10;-7.20;99.90
5394;DHT22;2720;52.396;10.064;2022-12-18T00:56:40;-7.10;99.90
5394;DHT22;2720;52.396;10.064;2022-12-18T00:59:07;-7.00;99.90
5394;DHT22;2720;52.396;10.064;2022-12-18T01:01:34;-7.00;99.90
5394;DHT22;2720;52.396;10.064;2022-12-18T01:04:01;-7.00;99.90
5394;DHT22;2720;52.396;10.064;2022-12-18T01:06:29;-7.40;99.90
5394;DHT22;2720;52.396;10.064;2022-12-18T01:08:56;-7.30;99.90
5394;DHT22;2720;52.396;10.064;2022-12-18T01:11:23;-7.10;99.90
5394;DHT22;2720;52.396;10.064;2022-12-18T01:13:53;-7.50;99.90
5394;DHT22;2720;52.396;10.064;2022-12-18T01:16:20;-7.50;99.90
5394;DHT22;2720;52.396;10.064;2022-12-18T01:18:50;-6.90;99.90
5394;DHT22;2720;52.396;10.064;2022-12-18T01:21:17;-7.60;99.90
5394;DHT22;2720;52.396;10.064;2022-12-18T01:23:44;-7.50;99.90
5394;DHT22;2720;52.396;10.064;2022-12-18T01:26:14;-7.20;99.90
5394;DHT22;2720;52.396;10.064;2022-12-18T01:28:41;-7.20;99.90
5394;DHT22;2720;52.396;10.064;2022-12-18T01:31:16;-6.90;99.90
5394;DHT22;2720;52.396;10.064;2022-12-18T01:33:44;-6.90;99.90
5394;DHT22;2720;52.396;10.064;2022-12-18T01:36:18;-6.80;99.90
5394;DHT22;2720;52.396;10.064;2022-12-18T01:38:46;-7.00;99.90
5394;DHT22;2720;52.396;10.064;2022-12-18T01:41:14;-7.00;99.90
5394;DHT22;2720;52.396;10.064;2022-12-18T01:43:44;-7.00;99.90
5394;DHT22;2720;52.396;10.064;2022-12-18T01:46:11;-7.20;99.90
5394;DHT22;2720;52.396;10.064;2022-12-18T01:48:40;-7.00;99.90
5394;DHT22;2720;52.396;10.064;2022-12-18T01:51:10;-7.30;99.90
5394;DHT22;2720;52.396;10.064;2022-12-18T01:53:39;-7.40;99.90
5394;DHT22;2720;52.396;10.064;2022-12-18T01:56:07;-7.00;99.90
5394;DHT22;2720;52.396;10.064;2022-12-18T01:58:40;-6.80;99.90
5394;DHT22;2720;52.396;10.064;2022-12-18T02:01:08;-6.80;99.90
5394;DHT22;2720;52.396;10.064;2022-12-18T02:03:36;-6.90;99.90
5394;DHT22;2720;52.396;10.064;2022-12-18T02:06:12;-6.90;99.90
5394;DHT22;2720;52.396;10.064;2022-12-18T02:08:47;-7.20;99.90
5394;DHT22;2720;52.396;10.064;2022-12-18T02:11:19;-6.40;99.90
5394;DHT22;2720;52.396;10.064;2022-12-18T02:13:54;-6.90;99.90
5394;DHT22;2720;52.396;10.064;2022-12-18T02:16:33;-7.10;99.90
5394;DHT22;2720;52.396;10.064;2022-12-18T02:19:08;-6.80;99.90
5394;DHT22;2720;52.396;10.064;2022-12-18T02:21:48;-7.00;99.90
5394;DHT22;2720;52.396;10.064;2022-12-18T02:24:28;-6.90;99.90
5394;DHT22;2720;52.396;10.064;2022-12-18T02:26:59;-6.80;99.90
5394;DHT22;2720;52.396;10.064;2022-12-18T02:29:32;-6.90;99.90
5394;DHT22;2720;52.396;10.064;2022-12-18T02:32:00;-6.90;99.90
5394;DHT22;2720;52.396;10.064;2022-12-18T02:34:31;-5.80;99.90
5394;DHT22;2720;52.396;10.064;2022-12-18T02:37:02;-6.80;99.90
5394;DHT22;2720;52.396;10.064;2022-12-18T02:39:33;-7.20;99.90
5394;DHT22;2720;52.396;10.064;2022-12-18T02:42:01;-7.10;99.90
5394;DHT22;2720;52.396;10.064;2022-12-18T02:44:33;-7.40;99.90
5394;DHT22;2720;52.396;10.064;2022-12-18T02:47:00;-7.10;99.90
5394;DHT22;2720;52.396;10.064;2022-12-18T02:49:34;-7.20;99.90
5394;DHT22;2720;52.396;10.064;2022-12-18T02:52:09;-7.10;99.90
5394;DHT22;2720;52.396;10.064;2022-12-18T02:54:46;-7.20;99.90
5394;DHT22;2720;52.396;10.064;2022-12-18T02:57:23;-5.20;99.90
5394;DHT22;2720;52.396;10.064;2022-12-18T02:59:58;-7.30;99.90
5394;DHT22;2720;52.396;10.064;2022-12-18T03:02:31;-7.40;99.90
5394;DHT22;2720;52.396;10.064;2022-12-18T03:05:04;-7.30;99.90
5394;DHT22;2720;52.396;10.064;2022-12-18T03:07:37;-7.50;99.90
5394;DHT22;2720;52.396;10.064;2022-12-18T03:10:08;-7.40;99.90
5394;DHT22;2720;52.396;10.064;2022-12-18T03:12:42;-7.50;99.90
5394;DHT22;2720;52.396;10.064;2022-12-18T03:15:13;-7.60;99.90
5394;DHT22;2720;52.396;10.064;2022-12-18T03:17:46;-7.80;99.90
5394;DHT22;2720;52.396;10.064;2022-12-18T03:20:19;-7.90;99.90
5394;DHT22;2720;52.396;10.064;2022-12-18T03:22:48;-8.00;99.90
5394;DHT22;2720;52.396;10.064;2022-12-18T03:25:17;-8.00;99.90
5394;DHT22;2720;52.396;10.064;2022-12-18T03:27:49;-7.30;99.90
5394;DHT22;2720;52.396;10.064;2022-12-18T03:30:18;-7.80;99.90
5394;DHT22;2720;52.396;10.064;2022-12-18T03:32:48;-8.00;99.90
5394;DHT22;2720;52.396;10.064;2022-12-18T03:35:22;-8.00;99.90
5394;DHT22;2720;52.396;10.064;2022-12-18T03:37:52;-8.20;99.90
5394;DHT22;2720;52.396;10.064;2022-12-18T03:40:21;-8.10;99.90
5394;DHT22;2720;52.396;10.064;2022-12-18T03:42:57;-8.10;99.90
5394;DHT22;2720;52.396;10.064;2022-12-18T03:45:29;-7.70;99.90
5394;DHT22;2720;52.396;10.064;2022-12-18T03:48:04;-8.00;99.90
5394;DHT22;2720;52.396;10.064;2022-12-18T03:50:39;-8.10;99.90
5394;DHT22;2720;52.396;10.064;2022-12-18T03:53:22;-7.50;99.90
5394;DHT22;2720;52.396;10.064;2022-12-18T03:55:50;-7.50;99.90
5394;DHT22;2720;52.396;10.064;2022-12-18T03:58:22;-7.90;99.90
5394;DHT22;2720;52.396;10.064;2022-12-18T04:00:52;-7.70;99.90
5394;DHT22;2720;52.396;10.064;2022-12-18T04:03:21;-8.00;99.90
5394;DHT22;2720;52.396;10.064;2022-12-18T04:05:51;-7.70;99.90
5394;DHT22;2720;52.396;10.064;2022-12-18T04:08:19;-7.60;99.90
5394;DHT22;2720;52.396;10.064;2022-12-18T04:10:47;-7.80;99.90
5394;DHT22;2720;52.396;10.064;2022-12-18T04:13:23;-7.80;99.90
5394;DHT22;2720;52.396;10.064;2022-12-18T04:15:50;-7.80;99.90
5394;DHT22;2720;52.396;10.064;2022-12-18T04:18:17;-7.50;99.90
5394;DHT22;2720;52.396;10.064;2022-12-18T04:20:44;-8.00;99.90
5394;DHT22;2720;52.396;10.064;2022-12-18T04:23:11;-7.90;99.90
5394;DHT22;2720;52.396;10.064;2022-12-18T04:25:38;-8.00;99.90
5394;DHT22;2720;52.396;10.064;2022-12-18T04:28:05;-8.00;99.90
5394;DHT22;2720;52.396;10.064;2022-12-18T04:30:33;-7.60;99.90
5394;DHT22;2720;52.396;10.064;2022-12-18T04:33:00;-7.90;99.90
5394;DHT22;2720;52.396;10.064;2022-12-18T04:35:27;-7.50;99.90
5394;DHT22;2720;52.396;10.064;2022-12-18T04:37:54;-7.90;99.90
5394;DHT22;2720;52.396;10.064;2022-12-18T04:40:21;-7.80;99.90
5394;DHT22;2720;52.396;10.064;2022-12-18T04:42:48;-7.60;99.90
5394;DHT22;2720;52.396;10.064;2022-12-18T04:45:15;-8.00;99.90
5394;DHT22;2720;52.396;10.064;2022-12-18T04:47:44;-8.00;99.90
5394;DHT22;2720;52.396;10.064;2022-12-18T04:50:11;-8.00;99.90
5394;DHT22;2720;52.396;10.064;2022-12-18T04:52:38;-8.00;99.90
5394;DHT22;2720;52.396;10.064;2022-12-18T04:55:05;-7.60;99.90
5394;DHT22;2720;52.396;10.064;2022-12-18T04:57:32;-7.90;99.90
5394;DHT22;2720;52.396;10.064;2022-12-18T04:59:59;-7.50;99.90
5394;DHT22;2720;52.396;10.064;2022-12-18T05:02:27;-7.50;99.90
5394;DHT22;2720;52.396;10.064;2022-12-18T05:04:55;-7.50;99.90
5394;DHT22;2720;52.396;10.064;2022-12-18T05:07:22;-7.50;99.90
5394;DHT22;2720;52.396;10.064;2022-12-18T05:09:49;-7.90;99.90
5394;DHT22;2720;52.396;10.064;2022-12-18T05:12:16;-8.00;99.90
5394;DHT22;2720;52.396;10.064;2022-12-18T05:14:43;-6.30;99.90
5394;DHT22;2720;52.396;10.064;2022-12-18T05:17:10;-8.30;99.90
5394;DHT22;2720;52.396;10.064;2022-12-18T05:19:38;-8.20;99.90
5394;DHT22;2720;52.396;10.064;2022-12-18T05:22:07;-8.60;99.90
5394;DHT22;2720;52.396;10.064;2022-12-18T05:24:34;-8.10;99.90
5394;DHT22;2720;52.396;10.064;2022-12-18T05:27:01;-8.80;99.90
5394;DHT22;2720;52.396;10.064;2022-12-18T05:29:28;-9.10;99.90
5394;DHT22;2720;52.396;10.064;2022-12-18T05:31:55;-9.00;99.90
5394;DHT22;2720;52.396;10.064;2022-12-18T05:34:22;-9.20;99.90
5394;DHT22;2720;52.396;10.064;2022-12-18T05:36:49;-9.00;99.90
5394;DHT22;2720;52.396;10.064;2022-12-18T05:39:17;-9.10;99.90
5394;DHT22;2720;52.396;10.064;2022-12-18T05:41:44;-9.00;99.90
5394;DHT22;2720;52.396;10.064;2022-12-18T05:44:11;-8.30;99.90
5394;DHT22;2720;52.396;10.064;2022-12-18T05:46:38;-9.00;99.90
5394;DHT22;2720;52.396;10.064;2022-12-18T05:49:08;-8.90;99.90
5394;DHT22;2720;52.396;10.064;2022-12-18T05:51:35;-8.60;99.90
5394;DHT22;2720;52.396;10.064;2022-12-18T05:54:02;-8.70;99.90
5394;DHT22;2720;52.396;10.064;2022-12-18T05:56:31;-8.70;99.90
5394;DHT22;2720;52.396;10.064;2022-12-18T05:58:58;-8.70;99.90
5394;DHT22;2720;52.396;10.064;2022-12-18T06:01:26;-8.50;99.90
5394;DHT22;2720;52.396;10.064;2022-12-18T06:03:53;-8.70;99.90
5394;DHT22;2720;52.396;10.064;2022-12-18T06:06:22;-8.40;99.90
5394;DHT22;2720;52.396;10.064;2022-12-18T06:08:50;-8.90;99.90
5394;DHT22;2720;52.396;10.064;2022-12-18T06:11:19;-8.80;99.90
5394;DHT22;2720;52.396;10.064;2022-12-18T06:13:50;-8.90;99.90
5394;DHT22;2720;52.396;10.064;2022-12-18T06:16:17;-8.50;99.90
5394;DHT22;2720;52.396;10.064;2022-12-18T06:18:46;-9.10;99.90
5394;DHT22;2720;52.396;10.064;2022-12-18T06:21:13;-9.20;99.90
5394;DHT22;2720;52.396;10.064;2022-12-18T06:23:40;-8.60;99.90
5394;DHT22;2720;52.396;10.064;2022-12-18T06:26:09;-8.40;99.90
5394;DHT22;2720;52.396;10.064;2022-12-18T06:28:36;-9.30;99.90
5394;DHT22;2720;52.396;10.064;2022-12-18T06:31:05;-8.50;99.90
5394;DHT22;2720;52.396;10.064;2022-12-18T06:33:33;-9.70;99.90
5394;DHT22;2720;52.396;10.064;2022-12-18T06:36:01;-9.50;99.90
5394;DHT22;2720;52.396;10.064;2022-12-18T06:38:29;-9.40;99.90
5394;DHT22;2720;52.396;10.064;2022-12-18T06:40:56;-9.30;99.90
5394;DHT22;2720;52.396;10.064;2022-12-18T06:43:23;-9.40;99.90
5394;DHT22;2720;52.396;10.064;2022-12-18T06:45:50;-9.60;99.90
5394;DHT22;2720;52.396;10.064;2022-12-18T06:48:20;-9.40;99.90
5394;DHT22;2720;52.396;10.064;2022-12-18T06:50:47;-8.90;99.90
5394;DHT22;2720;52.396;10.064;2022-12-18T06:53:14;-8.90;99.90
5394;DHT22;2720;52.396;10.064;2022-12-18T06:55:41;-8.60;99.90
5394;DHT22;2720;52.396;10.064;2022-12-18T06:58:08;-8.20;99.90
5394;DHT22;2720;52.396;10.064;2022-12-18T07:00:35;-8.50;99.90
5394;DHT22;2720;52.396;10.064;2022-12-18T07:03:02;-8.00;99.90
5394;DHT22;2720;52.396;10.064;2022-12-18T07:05:30;-8.40;99.90
5394;DHT22;2720;52.396;10.064;2022-12-18T07:07:58;-8.20;99.90
5394;DHT22;2720;52.396;10.064;2022-12-18T07:10:25;-7.60;99.90
5394;DHT22;2720;52.396;10.064;2022-12-18T07:12:52;-8.10;99.90
5394;DHT22;2720;52.396;10.064;2022-12-18T07:15:19;-7.90;99.90
5394;DHT22;2720;52.396;10.064;2022-12-18T07:17:46;-7.90;99.90
5394;DHT22;2720;52.396;10.064;2022-12-18T07:20:13;-8.20;99.90
5394;DHT22;2720;52.396;10.064;2022-12-18T07:22:41;-7.40;99.90
5394;DHT22;2720;52.396;10.064;2022-12-18T07:25:08;-7.90;99.90
5394;DHT22;2720;52.396;10.064;2022-12-18T07:27:35;-8.00;99.90
5394;DHT22;2720;52.396;10.064;2022-12-18T07:30:03;-7.70;99.90
5394;DHT22;2720;52.396;10.064;2022-12-18T07:32:30;-8.00;99.90
5394;DHT22;2720;52.396;10.064;2022-12-18T07:34:57;-7.50;99.90
5394;DHT22;2720;52.396;10.064;2022-12-18T07:37:24;-7.80;99.90
5394;DHT22;2720;52.396;10.064;2022-12-18T07:39:53;-7.70;99.90
5394;DHT22;2720;52.396;10.064;2022-12-18T07:42:20;-7.80;99.90
5394;DHT22;2720;52.396;10.064;2022-12-18T07:44:59;-7.80;99.90
5394;DHT22;2720;52.396;10.064;2022-12-18T07:47:26;-7.10;99.90
5394;DHT22;2720;52.396;10.064;2022-12-18T07:49:53;-7.60;99.90
5394;DHT22;2720;52.396;10.064;2022-12-18T07:52:20;-7.50;99.90
5394;DHT22;2720;52.396;10.064;2022-12-18T07:54:47;-7.40;99.90
5394;DHT22;2720;52.396;10.064;2022-12-18T07:57:16;-7.60;99.90
5394;DHT22;2720;52.396;10.064;2022-12-18T07:59:43;-7.50;99.90
5394;DHT22;2720;52.396;10.064;2022-12-18T08:02:10;-7.60;99.90
5394;DHT22;2720;52.396;10.064;2022-12-18T08:04:37;-7.60;99.90
5394;DHT22;2720;52.396;10.064;2022-12-18T08:07:04;-7.50;99.90
5394;DHT22;2720;52.396;10.064;2022-12-18T08:09:31;-6.90;99.90
5394;DHT22;2720;52.396;10.064;2022-12-18T08:11:58;-7.30;99.90
5394;DHT22;2720;52.396;10.064;2022-12-18T08:14:26;-7.40;99.90
5394;DHT22;2720;52.396;10.064;2022-12-18T08:16:53;-7.40;99.90
5394;DHT22;2720;52.396;10.064;2022-12-18T08:19:20;-7.30;99.90
5394;DHT22;2720;52.396;10.064;2022-12-18T08:21:47;-6.60;99.90
5394;DHT22;2720;52.396;10.064;2022-12-18T08:24:14;-7.20;99.90
5394;DHT22;2720;52.396;10.064;2022-12-18T08:26:41;-7.10;99.90
5394;DHT22;2720;52.396;10.064;2022-12-18T08:29:09;-7.00;99.90
5394;DHT22;2720;52.396;10.064;2022-12-18T08:31:38;-7.10;99.90
5394;DHT22;2720;52.396;10.064;2022-12-18T08:34:04;-6.90;99.90
5394;DHT22;2720;52.396;10.064;2022-12-18T08:36:31;-6.70;99.90
5394;DHT22;2720;52.396;10.064;2022-12-18T08:38:58;-5.10;99.90
5394;DHT22;2720;52.396;10.064;2022-12-18T08:41:25;-6.80;99.90
5394;DHT22;2720;52.396;10.064;2022-12-18T08:43:53;-6.60;99.90
5394;DHT22;2720;52.396;10.064;2022-12-18T08:46:39;-6.50;99.90
5394;DHT22;2720;52.396;10.064;2022-12-18T08:49:07;-5.70;99.90
5394;DHT22;2720;52.396;10.064;2022-12-18T08:51:35;-4.90;99.90
5394;DHT22;2720;52.396;10.064;2022-12-18T08:54:02;-6.30;99.90
5394;DHT22;2720;52.396;10.064;2022-12-18T08:56:30;-6.40;99.90
5394;DHT22;2720;52.396;10.064;2022-12-18T08:58:57;-6.10;99.90
5394;DHT22;2720;52.396;10.064;2022-12-18T09:01:24;-6.10;99.90
5394;DHT22;2720;52.396;10.064;2022-12-18T09:03:53;-5.70;99.90
5394;DHT22;2720;52.396;10.064;2022-12-18T09:06:21;-5.80;99.90
5394;DHT22;2720;52.396;10.064;2022-12-18T09:08:48;-5.80;99.90
5394;DHT22;2720;52.396;10.064;2022-12-18T09:11:20;-5.70;99.90
5394;DHT22;2720;52.396;10.064;2022-12-18T09:13:47;-5.50;99.90
5394;DHT22;2720;52.396;10.064;2022-12-18T09:16:14;-5.20;99.90
5394;DHT22;2720;52.396;10.064;2022-12-18T09:18:41;-5.60;99.90
5394;DHT22;2720;52.396;10.064;2022-12-18T09:21:11;-4.90;99.90
5394;DHT22;2720;52.396;10.064;2022-12-18T09:23:39;-5.10;99.90
5394;DHT22;2720;52.396;10.064;2022-12-18T09:26:06;-5.00;99.90
5394;DHT22;2720;52.396;10.064;2022-12-18T09:28:33;-5.10;99.90
5394;DHT22;2720;52.396;10.064;2022-12-18T09:31:04;-4.80;99.90
5394;DHT22;2720;52.396;10.064;2022-12-18T09:33:31;-4.20;99.90
5394;DHT22;2720;52.396;10.064;2022-12-18T09:36:01;-4.80;99.90
5394;DHT22;2720;52.396;10.064;2022-12-18T09:38:29;-4.50;99.90
5394;DHT22;2720;52.396;10.064;2022-12-18T09:41:00;-4.60;99.90
5394;DHT22;2720;52.396;10.064;2022-12-18T09:43:42;-4.80;99.90
5394;DHT22;2720;52.396;10.064;2022-12-18T09:46:15;-4.40;99.90
5394;DHT22;2720;52.396;10.064;2022-12-18T09:48:46;-3.80;99.90
5394;DHT22;2720;52.396;10.064;2022-12-18T09:51:17;-4.00;99.90
5394;DHT22;2720;52.396;10.064;2022-12-18T09:53:52;-4.30;99.90
5394;DHT22;2720;52.396;10.064;2022-12-18T09:56:21;-3.70;99.90
5394;DHT22;2720;52.396;10.064;2022-12-18T09:58:54;-4.10;99.90
5394;DHT22;2720;52.396;10.064;2022-12-18T10:01:24;-3.80;99.90
5394;DHT22;2720;52.396;10.064;2022-12-18T10:03:52;-3.90;99.90
5394;DHT22;2720;52.396;10.064;2022-12-18T10:06:23;-4.00;99.90
5394;DHT22;2720;52.396;10.064;2022-12-18T10:08:57;-3.70;99.90
5394;DHT22;2720;52.396;10.064;2022-12-18T10:11:34;-3.60;99.90
5394;DHT22;2720;52.396;10.064;2022-12-18T10:14:09;-3.90;99.90
5394;DHT22;2720;52.396;10.064;2022-12-18T10:16:45;-4.00;99.90
5394;DHT22;2720;52.396;10.064;2022-12-18T10:19:25;-3.70;99.90
5394;DHT22;2720;52.396;10.064;2022-12-18T10:22:01;-3.40;99.90
5394;DHT22;2720;52.396;10.064;2022-12-18T10:24:35;-3.70;99.90
5394;DHT22;2720;52.396;10.064;2022-12-18T10:27:12;-3.30;99.90
5394;DHT22;2720;52.396;10.064;2022-12-18T10:29:41;-3.00;99.90
5394;DHT22;2720;52.396;10.064;2022-12-18T10:32:14;-2.90;99.90
5394;DHT22;2720;52.396;10.064;2022-12-18T10:34:44;-3.80;99.90
5394;DHT22;2720;52.396;10.064;2022-12-18T10:37:15;-3.60;99.90
5394;DHT22;2720;52.396;10.064;2022-12-18T10:39:45;-2.80;99.90
5394;DHT22;2720;52.396;10.064;2022-12-18T10:42:17;-3.90;99.90
5394;DHT22;2720;52.396;10.064;2022-12-18T10:44:44;-3.30;99.90
5394;DHT22;2720;52.396;10.064;2022-12-18T10:47:14;-3.20;99.90
5394;DHT22;2720;52.396;10.064;2022-12-18T10:49:53;-3.10;99.90
5394;DHT22;2720;52.396;10.064;2022-12-18T10:52:21;-2.90;99.90
5394;DHT22;2720;52.396;10.064;2022-12-18T10:54:53;-2.80;99.90
5394;DHT22;2720;52.396;10.064;2022-12-18T10:57:34;-2.90;99.90
5394;DHT22;2720;52.396;10.064;2022-12-18T11:00:21;-2.90;99.90
5394;DHT22;2720;52.396;10.064;2022-12-18T11:02:49;-2.90;99.90
5394;DHT22;2720;52.396;10.064;2022-12-18T11:05:27;-2.70;99.90
5394;DHT22;2720;52.396;10.064;2022-12-18T11:07:55;-2.90;99.90
5394;DHT22;2720;52.396;10.064;2022-12-18T11:10:28;-2.80;99.90
5394;DHT22;2720;52.396;10.064;2022-12-18T11:13:09;-2.80;99.90
5394;DHT22;2720;52.396;10.064;2022-12-18T11:15:40;-2.60;99.90
5394;DHT22;2720;52.396;10.064;2022-12-18T11:18:16;-2.40;99.90
5394;DHT22;2720;52.396;10.064;2022-12-18T11:20:50;-2.80;99.90
5394;DHT22;2720;52.396;10.064;2022-12-18T11:23:19;-2.50;99.90
5394;DHT22;2720;52.396;10.064;2022-12-18T11:25:56;-2.40;99.90
5394;DHT22;2720;52.396;10.064;2022-12-18T11:28:45;-2.60;99.90
5394;DHT22;2720;52.396;10.064;2022-12-18T11:31:22;-2.30;99.90
5394;DHT22;2720;52.396;10.064;2022-12-18T11:33:54;-2.50;99.90
5394;DHT22;2720;52.396;10.064;2022-12-18T11:36:23;-2.50;99.90
5394;DHT22;2720;52.396;10.064;2022-12-18T11:38:53;-2.30;99.90
5394;DHT22;2720;52.396;10.064;2022-12-18T11:41:25;-2.40;99.90
5394;DHT22;2720;52.396;10.064;2022-12-18T11:44:19;-2.70;99.90
5394;DHT22;2720;52.396;10.064;2022-12-18T11:46:55;-2.30;99.90
5394;DHT22;2720;52.396;10.064;2022-12-18T11:49:28;-2.30;99.90
5394;DHT22;2720;52.396;10.064;2022-12-18T11:52:01;-2.00;99.90
5394;DHT22;2720;52.396;10.064;2022-12-18T11:54:30;-1.80;99.90
5394;DHT22;2720;52.396;10.064;2022-12-18T11:57:04;-1.90;99.90
5394;DHT22;2720;52.396;10.064;2022-12-18T11:59:37;-1.60;99.90
5394;DHT22;2720;52.396;10.064;2022-12-18T12:02:20;-1.80;99.90
5394;DHT22;2720;52.396;10.064;2022-12-18T12:05:08;-1.70;99.90
5394;DHT22;2720;52.396;10.064;2022-12-18T12:07:45;-1.50;99.90
5394;DHT22;2720;52.396;10.064;2022-12-18T12:10:28;-1.40;99.90
5394;DHT22;2720;52.396;10.064;2022-12-18T12:13:12;-1.40;99.90
5394;DHT22;2720;52.396;10.064;2022-12-18T12:15:46;-1.20;99.90
5394;DHT22;2720;52.396;10.064;2022-12-18T12:18:24;-1.30;99.90
5394;DHT22;2720;52.396;10.064;2022-12-18T12:21:04;-1.00;99.90
5394;DHT22;2720;52.396;10.064;2022-12-18T12:23:40;-1.30;99.90
5394;DHT22;2720;52.396;10.064;2022-12-18T12:26:11;-1.20;99.90
5394;DHT22;2720;52.396;10.064;2022-12-18T12:28:59;-1.20;99.90
5394;DHT22;2720;52.396;10.064;2022-12-18T12:31:51;-1.20;99.90
5394;DHT22;2720;52.396;10.064;2022-12-18T12:34:22;-1.40;99.90
5394;DHT22;2720;52.396;10.064;2022-12-18T12:39:27;-1.60;99.90
5394;DHT22;2720;52.396;10.064;2022-12-18T12:41:55;-1.80;99.90
5394;DHT22;2720;52.396;10.064;2022-12-18T12:44:44;-1.80;99.90
5394;DHT22;2720;52.396;10.064;2022-12-18T12:47:21;-1.90;99.90
5394;DHT22;2720;52.396;10.064;2022-12-18T12:49:50;-2.00;99.90
5394;DHT22;2720;52.396;10.064;2022-12-18T12:52:23;-2.10;99.90
5394;DHT22;2720;52.396;10.064;2022-12-18T12:54:53;-1.90;99.90
5394;DHT22;2720;52.396;10.064;2022-12-18T12:57:22;-2.10;99.90
5394;DHT22;2720;52.396;10.064;2022-12-18T12:59:57;-2.10;99.90
5394;DHT22;2720;52.396;10.064;2022-12-18T13:02:30;-1.90;99.90
5394;DHT22;2720;52.396;10.064;2022-12-18T13:05:06;-2.00;99.90
5394;DHT22;2720;52.396;10.064;2022-12-18T13:07:40;-2.30;99.90
5394;DHT22;2720;52.396;10.064;2022-12-18T13:10:25;-2.10;99.90
5394;DHT22;2720;52.396;10.064;2022-12-18T13:12:56;-2.30;99.90
5394;DHT22;2720;52.396;10.064;2022-12-18T13:15:27;-2.00;99.90
5394;DHT22;2720;52.396;10.064;2022-12-18T13:18:10;-2.40;99.90
5394;DHT22;2720;52.396;10.064;2022-12-18T13:20:40;-2.00;99.90
5394;DHT22;2720;52.396;10.064;2022-12-18T13:23:28;-2.10;99.90
5394;DHT22;2720;52.396;10.064;2022-12-18T13:25:57;-2.10;99.90
5394;DHT22;2720;52.396;10.064;2022-12-18T13:28:50;-1.90;99.90
5394;DHT22;2720;52.396;10.064;2022-12-18T13:34:20;-2.30;99.90
5394;DHT22;2720;52.396;10.064;2022-12-18T13:36:48;-2.20;99.90
5394;DHT22;2720;52.396;10.064;2022-12-18T13:39:33;-2.40;99.90
5394;DHT22;2720;52.396;10.064;2022-12-18T13:45:42;-2.30;99.90
5394;DHT22;2720;52.396;10.064;2022-12-18T13:48:17;-2.40;99.90
5394;DHT22;2720;52.396;10.064;2022-12-18T13:50:55;-2.30;99.90
5394;DHT22;2720;52.396;10.064;2022-12-18T13:53:26;-2.50;99.90
5394;DHT22;2720;52.396;10.064;2022-12-18T13:55:54;-2.10;99.90
5394;DHT22;2720;52.396;10.064;2022-12-18T13:58:21;-1.90;99.90
5394;DHT22;2720;52.396;10.064;2022-12-18T14:00:48;-2.50;99.90
5394;DHT22;2720;52.396;10.064;2022-12-18T14:03:21;-2.20;99.90
5394;DHT22;2720;52.396;10.064;2022-12-18T14:05:55;-2.20;99.90
5394;DHT22;2720;52.396;10.064;2022-12-18T14:08:23;-2.30;99.90
5394;DHT22;2720;52.396;10.064;2022-12-18T14:10:51;-2.50;99.90
5394;DHT22;2720;52.396;10.064;2022-12-18T14:13:23;-2.40;99.90
5394;DHT22;2720;52.396;10.064;2022-12-18T14:15:51;-2.50;99.90
5394;DHT22;2720;52.396;10.064;2022-12-18T14:18:21;-2.00;99.90
5394;DHT22;2720;52.396;10.064;2022-12-18T14:20:51;-2.00;99.90
5394;DHT22;2720;52.396;10.064;2022-12-18T14:23:36;-2.40;99.90
5394;DHT22;2720;52.396;10.064;2022-12-18T14:26:20;-2.40;99.90
5394;DHT22;2720;52.396;10.064;2022-12-18T14:28:48;-2.00;99.90
5394;DHT22;2720;52.396;10.064;2022-12-18T14:31:18;-2.20;99.90
5394;DHT22;2720;52.396;10.064;2022-12-18T14:33:46;-2.60;99.90
5394;DHT22;2720;52.396;10.064;2022-12-18T14:36:16;-2.60;99.90
5394;DHT22;2720;52.396;10.064;2022-12-18T14:38:48;-2.50;99.90
5394;DHT22;2720;52.396;10.064;2022-12-18T14:41:17;-2.40;99.90
5394;DHT22;2720;52.396;10.064;2022-12-18T14:43:45;-2.70;99.90
5394;DHT22;2720;52.396;10.064;2022-12-18T14:46:28;-2.50;99.90
5394;DHT22;2720;52.396;10.064;2022-12-18T14:48:56;-2.50;99.90
5394;DHT22;2720;52.396;10.064;2022-12-18T14:51:24;-2.60;99.90
5394;DHT22;2720;52.396;10.064;2022-12-18T14:53:56;-2.70;99.90
5394;DHT22;2720;52.396;10.064;2022-12-18T14:56:25;-2.70;99.90
5394;DHT22;2720;52.396;10.064;2022-12-18T14:58:55;-2.80;99.90
5394;DHT22;2720;52.396;10.064;2022-12-18T15:01:25;-2.20;99.90
5394;DHT22;2720;52.396;10.064;2022-12-18T15:03:54;-2.10;99.90
5394;DHT22;2720;52.396;10.064;2022-12-18T15:06:26;-2.40;99.90
5394;DHT22;2720;52.396;10.064;2022-12-18T15:08:55;-2.60;99.90
5394;DHT22;2720;52.396;10.064;2022-12-18T15:11:33;-2.70;99.90
5394;DHT22;2720;52.396;10.064;2022-12-18T15:14:22;-2.90;99.90
5394;DHT22;2720;52.396;10.064;2022-12-18T15:16:51;-3.00;99.90
5394;DHT22;2720;52.396;10.064;2022-12-18T15:19:20;-2.90;99.90
5394;DHT22;2720;52.396;10.064;2022-12-18T15:21:47;-2.60;99.90
5394;DHT22;2720;52.396;10.064;2022-12-18T15:24:21;-3.10;99.90
5394;DHT22;2720;52.396;10.064;2022-12-18T15:26:50;-2.90;99.90
5394;DHT22;2720;52.396;10.064;2022-12-18T15:29:20;-2.80;99.90
5394;DHT22;2720;52.396;10.064;2022-12-18T15:31:58;-2.80;99.90
5394;DHT22;2720;52.396;10.064;2022-12-18T15:34:27;-2.80;99.90
5394;DHT22;2720;52.396;10.064;2022-12-18T15:36:54;-2.40;99.90
5394;DHT22;2720;52.396;10.064;2022-12-18T15:39:22;-3.10;99.90
5394;DHT22;2720;52.396;10.064;2022-12-18T15:41:50;-2.90;99.90
5394;DHT22;2720;52.396;10.064;2022-12-18T15:44:34;-2.40;99.90
5394;DHT22;2720;52.396;10.064;2022-12-18T15:47:01;-3.20;99.90
5394;DHT22;2720;52.396;10.064;2022-12-18T15:49:28;-2.80;99.90
5394;DHT22;2720;52.396;10.064;2022-12-18T15:51:57;-3.00;99.90
5394;DHT22;2720;52.396;10.064;2022-12-18T15:54:27;-3.20;99.90
5394;DHT22;2720;52.396;10.064;2022-12-18T15:57:12;-3.00;99.90
5394;DHT22;2720;52.396;10.064;2022-12-18T15:59:51;-2.80;99.90
5394;DHT22;2720;52.396;10.064;2022-12-18T16:02:20;-3.10;99.90
5394;DHT22;2720;52.396;10.064;2022-12-18T16:04:48;-3.30;99.90
5394;DHT22;2720;52.396;10.064;2022-12-18T16:07:15;-3.20;99.90
5394;DHT22;2720;52.396;10.064;2022-12-18T16:09:48;-2.40;99.90
5394;DHT22;2720;52.396;10.064;2022-12-18T16:12:18;-2.90;99.90
5394;DHT22;2720;52.396;10.064;2022-12-18T16:14:45;-3.10;99.90
5394;DHT22;2720;52.396;10.064;2022-12-18T16:17:13;-3.00;99.90